createdAt,value
2023-05-10T00:00:01.618Z,15.58
2023-05-10T00:01:01.756Z,15.57
2023-05-10T00:02:01.970Z,15.57
2023-05-10T00:03:02.157Z,15.58
2023-05-10T00:04:02.298Z,15.55
2023-05-10T00:05:02.477Z,15.55
2023-05-10T00:06:02.671Z,15.51
2023-05-10T00:07:02.819Z,15.55
2023-05-10T00:08:02.973Z,15.54
2023-05-10T00:09:03.136Z,15.54
2023-05-10T00:10:03.318Z,15.52
2023-05-10T00:11:03.486Z,15.52
2023-05-10T00:12:03.678Z,15.52
2023-05-10T00:13:03.898Z,15.51
2023-05-10T00:14:04.008Z,15.49
2023-05-10T00:15:04.200Z,15.49
2023-05-10T00:16:04.418Z,15.49
2023-05-10T00:17:04.556Z,15.47
2023-05-10T00:18:04.790Z,15.46
2023-05-10T00:19:04.944Z,15.47
2023-05-10T00:20:05.114Z,15.47
2023-05-10T00:21:05.328Z,15.43
2023-05-10T00:22:05.437Z,15.43
2023-05-10T00:23:05.695Z,15.42
2023-05-10T00:24:05.797Z,15.42
2023-05-10T00:25:05.976Z,15.40
2023-05-10T00:26:06.147Z,15.40
2023-05-10T00:27:06.314Z,15.40
2023-05-10T00:28:06.539Z,15.39
2023-05-10T00:29:06.667Z,15.39
2023-05-10T00:30:06.846Z,15.39
2023-05-10T00:31:07.023Z,15.37
2023-05-10T00:32:07.281Z,15.36
2023-05-10T00:33:07.411Z,15.37
2023-05-10T00:34:07.584Z,15.35
2023-05-10T00:35:07.741Z,15.36
2023-05-10T00:36:07.915Z,15.31
2023-05-10T00:37:08.108Z,15.31
2023-05-10T00:38:08.276Z,15.29
2023-05-10T00:39:08.458Z,15.28
2023-05-10T00:40:08.641Z,15.28
2023-05-10T00:41:08.804Z,15.28
2023-05-10T00:42:08.979Z,15.25
2023-05-10T00:43:09.158Z,15.25
2023-05-10T00:44:09.339Z,15.21
2023-05-10T00:45:09.536Z,15.22
2023-05-10T00:46:09.730Z,15.19
2023-05-10T00:47:09.872Z,15.19
2023-05-10T00:48:10.060Z,15.17
2023-05-10T00:49:10.227Z,15.15
2023-05-10T00:50:10.446Z,15.15
2023-05-10T00:51:10.586Z,15.14
2023-05-10T00:52:10.774Z,15.14
2023-05-10T00:53:10.959Z,15.09
2023-05-10T00:54:11.120Z,15.07
2023-05-10T00:55:11.288Z,15.07
2023-05-10T00:56:11.474Z,15.09
2023-05-10T00:57:11.649Z,15.06
2023-05-10T00:58:11.832Z,15.04
2023-05-10T00:59:11.974Z,15.06
2023-05-10T01:00:12.151Z,15.06
2023-05-10T01:01:12.352Z,15.02
2023-05-10T01:02:12.539Z,15.02
2023-05-10T01:03:12.817Z,15.02
2023-05-10T01:04:12.861Z,15.00
2023-05-10T01:05:13.106Z,14.97
2023-05-10T01:06:13.237Z,14.97
2023-05-10T01:07:13.434Z,14.97
2023-05-10T01:08:13.598Z,14.96
2023-05-10T01:09:13.768Z,14.94
2023-05-10T01:10:14.165Z,14.92
2023-05-10T01:11:14.137Z,14.88
2023-05-10T01:12:14.352Z,14.88
2023-05-10T01:13:14.532Z,14.89
2023-05-10T01:14:14.653Z,14.86
2023-05-10T01:15:14.801Z,14.85
2023-05-10T01:16:15.049Z,14.85
2023-05-10T01:17:15.163Z,14.82
2023-05-10T01:18:15.338Z,14.79
2023-05-10T01:19:15.529Z,14.81
2023-05-10T01:20:15.970Z,14.81
2023-05-10T01:21:15.989Z,14.79
2023-05-10T01:22:16.067Z,14.79
2023-05-10T01:23:16.249Z,14.78
2023-05-10T01:24:16.431Z,14.78
2023-05-10T01:25:16.610Z,14.73
2023-05-10T01:26:16.783Z,14.70
2023-05-10T01:27:16.960Z,14.72
2023-05-10T01:28:17.132Z,14.70
2023-05-10T01:29:17.327Z,14.68
2023-05-10T01:30:17.489Z,14.68
2023-05-10T01:31:17.721Z,14.66
2023-05-10T01:32:17.853Z,14.66
2023-05-10T01:33:18.048Z,14.63
2023-05-10T01:34:18.223Z,14.62
2023-05-10T01:35:18.402Z,14.60
2023-05-10T01:36:18.577Z,14.62
2023-05-10T01:37:18.746Z,14.55
2023-05-10T01:38:18.930Z,14.54
2023-05-10T01:39:19.107Z,14.53
2023-05-10T01:40:19.256Z,14.53
2023-05-10T01:41:19.442Z,14.51
2023-05-10T01:42:19.630Z,14.50
2023-05-10T01:43:19.780Z,14.50
2023-05-10T01:44:19.956Z,14.47
2023-05-10T01:45:20.138Z,14.47
2023-05-10T01:46:20.352Z,14.45
2023-05-10T01:47:20.480Z,14.44
2023-05-10T01:48:20.658Z,14.43
2023-05-10T01:49:20.845Z,14.44
2023-05-10T01:50:21.009Z,14.43
2023-05-10T01:51:21.181Z,14.41
2023-05-10T01:52:21.356Z,14.36
2023-05-10T01:53:21.546Z,14.36
2023-05-10T01:54:21.708Z,14.37
2023-05-10T01:55:21.896Z,14.33
2023-05-10T01:56:22.094Z,14.30
2023-05-10T01:57:22.266Z,14.32
2023-05-10T01:58:22.424Z,14.33
2023-05-10T01:59:22.600Z,14.30
2023-05-10T02:00:22.767Z,14.29
2023-05-10T02:01:23.031Z,14.26
2023-05-10T02:02:23.160Z,14.23
2023-05-10T02:03:23.440Z,14.23
2023-05-10T02:04:23.448Z,14.22
2023-05-10T02:05:23.628Z,14.18
2023-05-10T02:06:23.812Z,14.17
2023-05-10T02:07:23.983Z,14.17
2023-05-10T02:08:24.123Z,14.15
2023-05-10T02:09:24.288Z,14.15
2023-05-10T02:10:24.463Z,14.12
2023-05-10T02:11:24.653Z,14.10
2023-05-10T02:12:24.810Z,14.10
2023-05-10T02:13:25.035Z,14.10
2023-05-10T02:14:25.139Z,14.08
2023-05-10T02:15:25.318Z,14.08
2023-05-10T02:16:25.533Z,14.07
2023-05-10T02:17:25.751Z,14.05
2023-05-10T02:18:25.855Z,14.05
2023-05-10T02:19:26.037Z,14.07
2023-05-10T02:20:26.220Z,14.04
2023-05-10T02:21:26.416Z,14.00
2023-05-10T02:22:26.580Z,13.99
2023-05-10T02:23:26.752Z,13.99
2023-05-10T02:24:26.925Z,13.99
2023-05-10T02:25:27.132Z,13.95
2023-05-10T02:26:27.307Z,13.99
2023-05-10T02:27:27.473Z,13.96
2023-05-10T02:28:27.657Z,13.93
2023-05-10T02:29:27.843Z,13.92
2023-05-10T02:30:28.035Z,13.90
2023-05-10T02:31:28.258Z,13.92
2023-05-10T02:32:28.457Z,13.92
2023-05-10T02:33:28.563Z,13.89
2023-05-10T02:34:28.730Z,13.89
2023-05-10T02:35:28.910Z,13.87
2023-05-10T02:36:29.072Z,13.85
2023-05-10T02:37:29.236Z,13.81
2023-05-10T02:38:29.397Z,13.79
2023-05-10T02:39:29.634Z,13.81
2023-05-10T02:40:29.757Z,13.79
2023-05-10T02:41:29.943Z,13.78
2023-05-10T02:42:30.114Z,13.77
2023-05-10T02:43:30.288Z,13.74
2023-05-10T02:44:30.479Z,13.71
2023-05-10T02:45:30.640Z,13.71
2023-05-10T02:46:30.871Z,13.71
2023-05-10T02:47:31.003Z,13.71
2023-05-10T02:48:31.163Z,13.68
2023-05-10T02:49:31.354Z,13.67
2023-05-10T02:50:31.523Z,13.65
2023-05-10T02:51:31.689Z,13.63
2023-05-10T02:52:31.849Z,13.63
2023-05-10T02:53:32.047Z,13.63
2023-05-10T02:54:32.169Z,13.63
2023-05-10T02:55:32.363Z,13.60
2023-05-10T02:56:32.512Z,13.57
2023-05-10T02:57:32.712Z,13.59
2023-05-10T02:58:32.886Z,13.56
2023-05-10T02:59:33.024Z,13.57
2023-05-10T03:00:33.252Z,13.54
2023-05-10T03:01:33.396Z,13.56
2023-05-10T03:02:33.617Z,13.54
2023-05-10T03:03:33.761Z,13.53
2023-05-10T03:04:33.942Z,13.54
2023-05-10T03:05:34.090Z,13.53
2023-05-10T03:06:34.251Z,13.52
2023-05-10T03:07:34.436Z,13.50
2023-05-10T03:08:34.553Z,13.49
2023-05-10T03:09:34.752Z,13.47
2023-05-10T03:10:34.908Z,13.46
2023-05-10T03:11:35.086Z,13.47
2023-05-10T03:12:35.247Z,13.46
2023-05-10T03:13:35.436Z,13.42
2023-05-10T03:14:35.591Z,13.42
2023-05-10T03:15:35.783Z,13.44
2023-05-10T03:16:36.050Z,13.42
2023-05-10T03:17:36.212Z,13.44
2023-05-10T03:18:36.317Z,13.46
2023-05-10T03:19:36.531Z,13.44
2023-05-10T03:20:36.662Z,13.44
2023-05-10T03:21:36.878Z,13.42
2023-05-10T03:22:37.058Z,13.42
2023-05-10T03:23:37.207Z,13.42
2023-05-10T03:24:37.351Z,13.44
2023-05-10T03:25:37.518Z,13.44
2023-05-10T03:26:37.708Z,13.44
2023-05-10T03:27:37.880Z,13.44
2023-05-10T03:28:38.068Z,13.42
2023-05-10T03:29:38.255Z,13.41
2023-05-10T03:30:38.439Z,13.44
2023-05-10T03:31:38.653Z,13.42
2023-05-10T03:32:38.793Z,13.42
2023-05-10T03:33:38.920Z,13.44
2023-05-10T03:34:39.113Z,13.46
2023-05-10T03:35:39.287Z,13.44
2023-05-10T03:36:39.462Z,13.44
2023-05-10T03:37:39.620Z,13.47
2023-05-10T03:38:39.762Z,13.47
2023-05-10T03:39:39.946Z,13.47
2023-05-10T03:40:40.100Z,13.47
2023-05-10T03:41:40.259Z,13.50
2023-05-10T03:42:40.436Z,13.56
2023-05-10T03:43:40.634Z,13.60
2023-05-10T03:44:40.813Z,13.65
2023-05-10T03:45:41.023Z,13.71
2023-05-10T03:46:41.182Z,13.78
2023-05-10T03:47:41.384Z,13.83
2023-05-10T03:48:41.499Z,13.89
2023-05-10T03:49:41.711Z,13.96
2023-05-10T03:50:41.862Z,14.04
2023-05-10T03:51:42.052Z,14.07
2023-05-10T03:52:42.225Z,14.12
2023-05-10T03:53:42.426Z,14.23
2023-05-10T03:54:42.591Z,14.26
2023-05-10T03:55:42.763Z,14.33
2023-05-10T03:56:42.938Z,14.36
2023-05-10T03:57:43.121Z,14.41
2023-05-10T03:58:43.325Z,14.44
2023-05-10T03:59:43.490Z,14.45
2023-05-10T04:00:43.657Z,14.50
2023-05-10T04:01:43.871Z,14.53
2023-05-10T04:02:45.895Z,14.58
2023-05-10T04:03:44.243Z,14.55
2023-05-10T04:04:44.362Z,14.55
2023-05-10T04:05:44.515Z,14.58
2023-05-10T04:06:44.680Z,14.55
2023-05-10T04:07:44.828Z,14.58
2023-05-10T04:08:45.021Z,14.58
2023-05-10T04:09:45.203Z,14.59
2023-05-10T04:10:45.373Z,14.60
2023-05-10T04:11:45.559Z,14.63
2023-05-10T04:12:45.814Z,14.65
2023-05-10T04:13:45.939Z,14.66
2023-05-10T04:14:46.088Z,14.72
2023-05-10T04:15:46.251Z,14.78
2023-05-10T04:16:46.514Z,14.86
2023-05-10T04:17:46.673Z,14.91
2023-05-10T04:18:46.789Z,14.96
2023-05-10T04:19:46.983Z,14.99
2023-05-10T04:20:47.160Z,15.02
2023-05-10T04:21:47.306Z,15.03
2023-05-10T04:22:47.509Z,15.04
2023-05-10T04:23:47.663Z,15.04
2023-05-10T04:24:47.877Z,15.06
2023-05-10T04:25:47.999Z,15.03
2023-05-10T04:26:48.204Z,15.02
2023-05-10T04:27:48.397Z,15.07
2023-05-10T04:28:48.538Z,15.10
2023-05-10T04:29:48.719Z,15.10
2023-05-10T04:30:48.937Z,15.11
2023-05-10T04:31:49.071Z,15.14
2023-05-10T04:32:49.283Z,15.14
2023-05-10T04:33:49.441Z,15.17
2023-05-10T04:34:49.591Z,15.17
2023-05-10T04:35:49.780Z,15.15
2023-05-10T04:36:49.991Z,15.18
2023-05-10T04:37:50.148Z,15.19
2023-05-10T04:38:50.289Z,15.21
2023-05-10T04:39:50.480Z,15.22
2023-05-10T04:40:50.663Z,15.27
2023-05-10T04:41:50.840Z,15.27
2023-05-10T04:42:50.999Z,15.33
2023-05-10T04:43:51.189Z,15.35
2023-05-10T04:44:51.321Z,15.37
2023-05-10T04:45:51.510Z,15.40
2023-05-10T04:46:51.645Z,15.39
2023-05-10T04:47:51.819Z,15.43
2023-05-10T04:48:51.951Z,15.47
2023-05-10T04:49:52.129Z,15.52
2023-05-10T04:50:52.342Z,15.59
2023-05-10T04:51:52.501Z,15.61
2023-05-10T04:52:53.357Z,15.67
2023-05-10T04:54:05.391Z,15.76
2023-05-10T04:54:54.032Z,15.84
2023-05-10T04:55:53.220Z,15.94
2023-05-10T04:56:53.412Z,15.98
2023-05-10T04:57:53.563Z,15.98
2023-05-10T04:58:53.734Z,16.01
2023-05-10T04:59:53.920Z,16.04
2023-05-10T05:00:54.117Z,16.08
2023-05-10T05:01:54.282Z,16.10
2023-05-10T05:02:54.514Z,16.10
2023-05-10T05:03:54.702Z,16.12
2023-05-10T05:04:54.786Z,16.15
2023-05-10T05:05:54.988Z,16.21
2023-05-10T05:06:55.166Z,16.28
2023-05-10T05:07:55.349Z,16.33
2023-05-10T05:08:55.533Z,16.36
2023-05-10T05:09:55.734Z,16.36
2023-05-10T05:10:55.899Z,16.43
2023-05-10T05:11:56.076Z,16.57
2023-05-10T05:12:56.309Z,16.69
2023-05-10T05:13:56.416Z,16.86
2023-05-10T05:14:56.631Z,16.97
2023-05-10T05:15:56.792Z,17.09
2023-05-10T05:16:56.943Z,17.24
2023-05-10T05:17:57.158Z,17.42
2023-05-10T05:18:57.282Z,17.56
2023-05-10T05:19:57.427Z,17.67
2023-05-10T05:20:57.624Z,17.78
2023-05-10T05:21:57.801Z,18.03
2023-05-10T05:22:57.959Z,18.34
2023-05-10T05:23:58.151Z,18.65
2023-05-10T05:24:58.312Z,19.09
2023-05-10T05:25:58.469Z,19.49
2023-05-10T05:26:58.654Z,19.92
2023-05-10T05:27:58.828Z,20.18
2023-05-10T05:28:59.009Z,20.41
2023-05-10T05:29:59.147Z,20.60
2023-05-10T05:30:59.338Z,20.80
2023-05-10T05:31:59.496Z,21.02
2023-05-10T05:32:59.712Z,21.33
2023-05-10T05:33:59.849Z,21.52
2023-05-10T05:35:00.042Z,21.82
2023-05-10T05:36:00.217Z,22.15
2023-05-10T05:37:00.408Z,22.48
2023-05-10T05:38:00.571Z,22.75
2023-05-10T05:39:00.734Z,22.90
2023-05-10T05:40:00.883Z,23.00
2023-05-10T05:41:01.068Z,23.21
2023-05-10T05:42:01.231Z,23.44
2023-05-10T05:43:01.458Z,23.63
2023-05-10T05:44:01.578Z,23.87
2023-05-10T05:45:01.759Z,23.80
2023-05-10T05:46:01.966Z,23.80
2023-05-10T05:47:02.106Z,23.98
2023-05-10T05:48:02.334Z,24.20
2023-05-10T05:49:02.447Z,24.42
2023-05-10T05:50:02.621Z,24.68
2023-05-10T05:51:02.980Z,24.86
2023-05-10T05:52:02.979Z,25.10
2023-05-10T05:53:03.153Z,25.33
2023-05-10T05:54:03.325Z,25.51
2023-05-10T05:55:03.493Z,25.73
2023-05-10T05:56:03.658Z,25.90
2023-05-10T05:57:03.867Z,25.95
2023-05-10T05:58:04.038Z,25.98
2023-05-10T05:59:04.200Z,25.78
2023-05-10T06:00:04.374Z,25.80
2023-05-10T06:01:04.519Z,25.80
2023-05-10T06:02:04.726Z,25.70
2023-05-10T06:03:04.948Z,25.63
2023-05-10T06:04:05.140Z,25.77
2023-05-10T06:05:05.190Z,25.99
2023-05-10T06:06:05.372Z,26.05
2023-05-10T06:07:05.550Z,26.21
2023-05-10T06:08:05.688Z,26.47
2023-05-10T06:09:05.851Z,26.45
2023-05-10T06:10:06.002Z,26.47
2023-05-10T06:11:06.206Z,26.51
2023-05-10T06:12:06.364Z,26.58
2023-05-10T06:13:06.637Z,26.74
2023-05-10T06:14:06.726Z,26.81
2023-05-10T06:15:06.921Z,26.73
2023-05-10T06:16:07.141Z,26.77
2023-05-10T06:17:07.288Z,26.89
2023-05-10T06:18:07.499Z,27.07
2023-05-10T06:19:07.644Z,27.22
2023-05-10T06:20:07.785Z,27.42
2023-05-10T06:21:08.061Z,27.60
2023-05-10T06:22:08.148Z,27.86
2023-05-10T06:23:08.351Z,28.20
2023-05-10T06:24:08.505Z,28.49
2023-05-10T06:25:08.717Z,28.81
2023-05-10T06:26:08.884Z,28.98
2023-05-10T06:27:09.041Z,29.02
2023-05-10T06:28:09.207Z,28.94
2023-05-10T06:29:09.400Z,28.67
2023-05-10T06:30:12.923Z,28.45
2023-05-10T06:31:09.799Z,28.29
2023-05-10T06:32:09.914Z,28.01
2023-05-10T06:33:10.184Z,27.71
2023-05-10T06:34:10.285Z,27.63
2023-05-10T06:35:10.484Z,27.80
2023-05-10T06:36:10.642Z,27.95
2023-05-10T06:37:10.822Z,27.96
2023-05-10T06:38:11.014Z,28.15
2023-05-10T06:39:11.185Z,28.41
2023-05-10T06:40:11.376Z,28.74
2023-05-10T06:41:11.527Z,29.10
2023-05-10T06:42:11.682Z,29.34
2023-05-10T06:43:11.874Z,29.39
2023-05-10T06:44:12.062Z,29.51
2023-05-10T06:45:12.270Z,29.71
2023-05-10T06:46:12.518Z,29.82
2023-05-10T06:47:12.607Z,29.86
2023-05-10T06:48:12.876Z,29.86
2023-05-10T06:49:13.005Z,29.93
2023-05-10T06:50:13.216Z,29.79
2023-05-10T06:51:13.356Z,29.51
2023-05-10T06:52:13.518Z,29.22
2023-05-10T06:53:13.726Z,29.02
2023-05-10T06:54:13.875Z,29.19
2023-05-10T06:55:14.074Z,29.49
2023-05-10T06:56:14.216Z,29.73
2023-05-10T06:57:27.724Z,29.73
2023-05-10T06:58:15.612Z,29.71
2023-05-10T06:59:14.814Z,29.75
2023-05-10T07:00:15.100Z,29.84
2023-05-10T07:01:15.293Z,29.98
2023-05-10T07:02:15.369Z,30.25
2023-05-10T07:03:15.546Z,30.47
2023-05-10T07:04:15.716Z,30.65
2023-05-10T07:05:16.041Z,30.51
2023-05-10T07:06:29.305Z,30.48
2023-05-10T07:07:17.205Z,30.31
2023-05-10T07:08:16.368Z,30.19
2023-05-10T07:09:16.560Z,30.28
2023-05-10T07:10:16.725Z,30.30
2023-05-10T07:11:16.904Z,30.40
2023-05-10T07:12:17.118Z,30.48
2023-05-10T07:13:17.315Z,30.39
2023-05-10T07:14:17.416Z,30.00
2023-05-10T07:15:17.967Z,29.73
2023-05-10T07:16:17.773Z,29.57
2023-05-10T07:17:18.028Z,29.66
2023-05-10T07:18:18.115Z,29.76
2023-05-10T07:19:18.273Z,29.93
2023-05-10T07:20:18.449Z,29.82
2023-05-10T07:21:18.696Z,29.91
2023-05-10T07:22:18.831Z,30.16
2023-05-10T07:23:19.010Z,30.24
2023-05-10T07:24:19.158Z,30.30
2023-05-10T07:25:19.328Z,30.55
2023-05-10T07:26:19.499Z,30.80
2023-05-10T07:27:19.654Z,31.10
2023-05-10T07:28:19.830Z,31.34
2023-05-10T07:29:20.002Z,31.56
2023-05-10T07:30:20.205Z,31.73
2023-05-10T07:31:20.343Z,31.90
2023-05-10T07:32:20.579Z,32.07
2023-05-10T07:33:20.700Z,32.12
2023-05-10T07:34:20.854Z,32.00
2023-05-10T07:35:21.056Z,32.14
2023-05-10T07:36:21.233Z,32.37
2023-05-10T07:37:21.427Z,32.56
2023-05-10T07:38:21.562Z,32.77
2023-05-10T07:39:27.792Z,32.89
2023-05-10T07:40:22.966Z,32.95
2023-05-10T07:41:22.097Z,32.90
2023-05-10T07:42:22.287Z,32.83
2023-05-10T07:43:22.454Z,32.78
2023-05-10T07:44:22.632Z,32.65
2023-05-10T07:45:22.799Z,32.65
2023-05-10T07:46:23.040Z,32.63
2023-05-10T07:47:23.134Z,32.68
2023-05-10T07:48:23.317Z,32.93
2023-05-10T07:49:23.478Z,33.15
2023-05-10T07:50:23.653Z,33.37
2023-05-10T07:51:23.823Z,33.57
2023-05-10T07:52:23.988Z,33.68
2023-05-10T07:53:24.181Z,33.74
2023-05-10T07:54:24.371Z,33.94
2023-05-10T07:55:24.565Z,34.13
2023-05-10T07:56:24.722Z,34.13
2023-05-10T07:57:24.865Z,34.10
2023-05-10T07:58:25.041Z,34.11
2023-05-10T07:59:25.232Z,34.16
2023-05-10T08:00:25.423Z,34.35
2023-05-10T08:01:25.599Z,34.64
2023-05-10T08:02:25.843Z,34.67
2023-05-10T08:03:26.020Z,34.47
2023-05-10T08:04:26.169Z,34.38
2023-05-10T08:05:26.273Z,34.35
2023-05-10T08:06:26.436Z,34.39
2023-05-10T08:07:26.639Z,34.52
2023-05-10T08:08:26.791Z,34.54
2023-05-10T08:09:26.989Z,34.54
2023-05-10T08:10:27.145Z,34.51
2023-05-10T08:11:27.299Z,34.42
2023-05-10T08:12:27.488Z,34.36
2023-05-10T08:13:27.654Z,34.48
2023-05-10T08:14:27.815Z,34.57
2023-05-10T08:15:28.037Z,34.62
2023-05-10T08:16:28.203Z,34.75
2023-05-10T08:17:28.429Z,34.95
2023-05-10T08:18:28.547Z,35.12
2023-05-10T08:19:28.685Z,35.14
2023-05-10T08:20:28.892Z,35.23
2023-05-10T08:21:29.032Z,35.31
2023-05-10T08:22:29.207Z,35.31
2023-05-10T08:23:29.379Z,35.05
2023-05-10T08:24:29.542Z,35.00
2023-05-10T08:25:29.726Z,35.08
2023-05-10T08:26:29.921Z,35.14
2023-05-10T08:27:30.116Z,35.26
2023-05-10T08:28:30.296Z,35.10
2023-05-10T08:29:32.839Z,35.22
2023-05-10T08:30:31.611Z,35.39
2023-05-10T08:31:30.853Z,35.49
2023-05-10T08:32:31.031Z,35.64
2023-05-10T08:33:31.167Z,35.67
2023-05-10T08:34:31.329Z,35.55
2023-05-10T08:35:31.506Z,35.79
2023-05-10T08:36:31.675Z,36.05
2023-05-10T08:37:31.845Z,36.35
2023-05-10T08:38:32.069Z,36.74
2023-05-10T08:39:32.226Z,36.59
2023-05-10T08:40:32.364Z,36.42
2023-05-10T08:41:32.563Z,36.46
2023-05-10T08:42:32.712Z,36.73
2023-05-10T08:43:32.887Z,36.96
2023-05-10T08:44:33.039Z,37.18
2023-05-10T08:45:33.244Z,37.29
2023-05-10T08:46:33.453Z,37.49
2023-05-10T08:47:33.608Z,37.71
2023-05-10T08:48:33.727Z,37.90
2023-05-10T08:49:33.951Z,38.09
2023-05-10T08:50:34.117Z,37.94
2023-05-10T08:51:34.253Z,37.94
2023-05-10T08:52:34.446Z,37.97
2023-05-10T08:53:34.608Z,38.02
2023-05-10T08:54:34.771Z,37.80
2023-05-10T08:55:34.942Z,37.86
2023-05-10T08:56:35.113Z,37.84
2023-05-10T08:57:35.284Z,37.82
2023-05-10T08:58:35.501Z,38.06
2023-05-10T08:59:35.628Z,38.34
2023-05-10T09:00:35.854Z,38.55
2023-05-10T09:01:35.952Z,38.68
2023-05-10T09:02:36.158Z,38.68
2023-05-10T09:03:36.390Z,38.83
2023-05-10T09:04:36.608Z,38.71
2023-05-10T09:05:36.659Z,38.87
2023-05-10T09:06:36.884Z,39.15
2023-05-10T09:07:37.033Z,39.34
2023-05-10T09:08:37.223Z,39.51
2023-05-10T09:09:37.391Z,39.38
2023-05-10T09:10:37.548Z,39.51
2023-05-10T09:11:37.729Z,39.71
2023-05-10T09:12:37.898Z,39.33
2023-05-10T09:13:38.049Z,38.99
2023-05-10T09:14:38.258Z,38.89
2023-05-10T09:15:38.401Z,38.61
2023-05-10T09:16:38.674Z,38.49
2023-05-10T09:17:38.847Z,38.54
2023-05-10T09:18:39.035Z,38.82
2023-05-10T09:19:39.124Z,39.26
2023-05-10T09:20:39.325Z,39.56
2023-05-10T09:21:39.469Z,39.25
2023-05-10T09:22:39.734Z,39.04
2023-05-10T09:23:39.851Z,38.91
2023-05-10T09:24:40.008Z,39.06
2023-05-10T09:25:40.233Z,39.26
2023-05-10T09:26:40.381Z,39.48
2023-05-10T09:27:40.544Z,39.60
2023-05-10T09:28:40.698Z,39.68
2023-05-10T09:29:40.865Z,39.85
2023-05-10T09:30:41.086Z,40.02
2023-05-10T09:31:41.221Z,40.12
2023-05-10T09:32:41.472Z,39.87
2023-05-10T09:33:41.560Z,39.86
2023-05-10T09:34:41.728Z,39.94
2023-05-10T09:35:41.914Z,40.11
2023-05-10T09:36:42.083Z,40.34
2023-05-10T09:37:42.304Z,40.53
2023-05-10T09:38:42.445Z,40.69
2023-05-10T09:39:42.602Z,40.75
2023-05-10T09:40:42.775Z,40.70
2023-05-10T09:41:42.948Z,40.47
2023-05-10T09:42:43.120Z,40.15
2023-05-10T09:43:43.277Z,39.94
2023-05-10T09:44:43.435Z,40.08
2023-05-10T09:45:43.592Z,40.40
2023-05-10T09:46:43.807Z,40.78
2023-05-10T09:47:44.014Z,41.12
2023-05-10T09:48:44.143Z,41.15
2023-05-10T09:49:44.343Z,41.33
2023-05-10T09:50:44.608Z,41.62
2023-05-10T09:51:44.704Z,41.85
2023-05-10T09:52:44.858Z,41.85
2023-05-10T09:53:45.025Z,41.38
2023-05-10T09:54:45.215Z,40.91
2023-05-10T09:55:45.411Z,40.68
2023-05-10T09:56:45.559Z,40.44
2023-05-10T09:57:45.729Z,40.53
2023-05-10T09:58:45.895Z,40.68
2023-05-10T09:59:46.055Z,40.75
2023-05-10T10:00:46.254Z,40.53
2023-05-10T10:01:46.428Z,40.26
2023-05-10T10:02:46.613Z,39.92
2023-05-10T10:03:46.737Z,39.87
2023-05-10T10:04:46.982Z,39.85
2023-05-10T10:05:47.142Z,39.81
2023-05-10T10:06:47.287Z,39.07
2023-05-10T10:07:47.464Z,38.17
2023-05-10T10:08:47.654Z,37.25
2023-05-10T10:09:47.840Z,36.57
2023-05-10T10:10:48.083Z,36.16
2023-05-10T10:11:48.195Z,35.83
2023-05-10T10:12:48.386Z,35.53
2023-05-10T10:13:48.582Z,35.08
2023-05-10T10:14:48.756Z,34.40
2023-05-10T10:15:48.925Z,33.95
2023-05-10T10:17:05.082Z,33.37
2023-05-10T10:17:50.273Z,32.90
2023-05-10T10:18:49.577Z,32.53
2023-05-10T10:19:49.656Z,32.14
2023-05-10T10:20:49.788Z,31.70
2023-05-10T10:21:49.964Z,31.24
2023-05-10T10:22:50.152Z,30.85
2023-05-10T10:23:50.354Z,30.63
2023-05-10T10:24:50.498Z,30.28
2023-05-10T10:25:50.682Z,29.87
2023-05-10T10:26:50.869Z,29.44
2023-05-10T10:27:51.015Z,29.01
2023-05-10T10:28:51.223Z,28.74
2023-05-10T10:29:51.359Z,28.54
2023-05-10T10:30:51.555Z,28.23
2023-05-10T10:31:51.782Z,28.08
2023-05-10T10:32:51.917Z,28.00
2023-05-10T10:33:52.057Z,27.87
2023-05-10T10:34:52.233Z,27.77
2023-05-10T10:35:52.410Z,27.67
2023-05-10T10:36:52.589Z,27.63
2023-05-10T10:37:52.774Z,27.52
2023-05-10T10:38:52.937Z,27.42
2023-05-10T10:39:53.122Z,27.30
2023-05-10T10:40:53.301Z,27.14
2023-05-10T10:41:53.498Z,27.03
2023-05-10T10:42:53.676Z,26.99
2023-05-10T10:43:53.821Z,26.90
2023-05-10T10:44:54.020Z,26.90
2023-05-10T10:45:54.159Z,26.89
2023-05-10T10:46:54.380Z,26.83
2023-05-10T10:47:54.606Z,26.66
2023-05-10T10:48:54.708Z,26.47
2023-05-10T10:49:54.895Z,26.41
2023-05-10T10:50:55.069Z,26.38
2023-05-10T10:51:55.257Z,26.29
2023-05-10T10:52:55.417Z,26.28
2023-05-10T10:53:55.569Z,26.21
2023-05-10T10:54:55.738Z,26.21
2023-05-10T10:55:55.939Z,26.21
2023-05-10T10:56:56.137Z,26.22
2023-05-10T10:57:56.290Z,26.16
2023-05-10T10:58:56.471Z,26.07
2023-05-10T10:59:56.655Z,26.06
2023-05-10T11:00:56.905Z,26.07
2023-05-10T11:01:57.021Z,26.02
2023-05-10T11:02:57.244Z,25.96
2023-05-10T11:03:57.358Z,25.99
2023-05-10T11:04:57.516Z,25.98
2023-05-10T11:05:57.713Z,25.98
2023-05-10T11:06:57.888Z,25.99
2023-05-10T11:07:58.079Z,26.00
2023-05-10T11:08:58.256Z,26.00
2023-05-10T11:09:58.421Z,26.05
2023-05-10T11:10:58.642Z,26.06
2023-05-10T11:11:58.774Z,26.09
2023-05-10T11:12:58.950Z,26.06
2023-05-10T11:13:59.150Z,26.07
2023-05-10T11:14:59.330Z,26.07
2023-05-10T11:15:59.479Z,26.07
2023-05-10T11:16:59.708Z,26.10
2023-05-10T11:18:00.046Z,26.15
2023-05-10T11:19:00.115Z,26.15
2023-05-10T11:20:00.196Z,26.16
2023-05-10T11:21:00.372Z,26.13
2023-05-10T11:22:00.543Z,26.15
2023-05-10T11:23:00.720Z,26.16
2023-05-10T11:24:00.924Z,26.09
2023-05-10T11:25:01.113Z,26.05
2023-05-10T11:26:01.266Z,26.06
2023-05-10T11:27:01.438Z,26.06
2023-05-10T11:28:01.636Z,26.07
2023-05-10T11:29:01.863Z,26.10
2023-05-10T11:30:04.326Z,26.16
2023-05-10T11:31:02.223Z,26.22
2023-05-10T11:32:02.339Z,26.22
2023-05-10T11:33:02.623Z,26.19
2023-05-10T11:34:02.813Z,26.22
2023-05-10T11:35:02.878Z,26.26
2023-05-10T11:36:03.048Z,26.23
2023-05-10T11:37:03.234Z,26.26
2023-05-10T11:38:03.442Z,26.26
2023-05-10T11:39:03.650Z,26.31
2023-05-10T11:40:03.782Z,26.33
2023-05-10T11:41:03.962Z,26.28
2023-05-10T11:42:04.114Z,26.22
2023-05-10T11:43:04.330Z,26.18
2023-05-10T11:44:04.497Z,26.16
2023-05-10T11:45:04.642Z,26.15
2023-05-10T11:46:04.886Z,26.10
2023-05-10T11:47:05.017Z,26.10
2023-05-10T11:48:05.263Z,26.07
2023-05-10T11:49:05.739Z,26.05
2023-05-10T11:50:05.539Z,26.06
2023-05-10T11:51:05.744Z,26.07
2023-05-10T11:52:05.907Z,26.09
2023-05-10T11:53:06.093Z,26.13
2023-05-10T11:54:06.209Z,26.18
2023-05-10T11:55:06.402Z,26.22
2023-05-10T11:56:06.579Z,26.28
2023-05-10T11:57:06.778Z,26.28
2023-05-10T11:58:06.952Z,26.31
2023-05-10T11:59:07.104Z,26.33
2023-05-10T12:00:07.278Z,26.37
2023-05-10T12:01:07.449Z,26.37
2023-05-10T12:02:07.645Z,26.43
2023-05-10T12:03:07.992Z,26.37
2023-05-10T12:04:08.070Z,26.37
2023-05-10T12:05:08.246Z,26.38
2023-05-10T12:06:08.341Z,26.38
2023-05-10T12:07:08.502Z,26.36
2023-05-10T12:08:08.760Z,26.40
2023-05-10T12:09:08.862Z,26.40
2023-05-10T12:10:09.035Z,26.40
2023-05-10T12:11:09.212Z,26.38
2023-05-10T12:12:09.386Z,26.38
2023-05-10T12:13:09.558Z,26.36
2023-05-10T12:14:09.744Z,26.38
2023-05-10T12:15:09.946Z,26.41
2023-05-10T12:16:10.149Z,26.41
2023-05-10T12:17:10.304Z,26.43
2023-05-10T12:18:10.493Z,26.47
2023-05-10T12:19:10.676Z,26.52
2023-05-10T12:20:10.814Z,26.51
2023-05-10T12:21:10.989Z,26.52
2023-05-10T12:22:11.192Z,26.51
2023-05-10T12:23:11.312Z,26.52
2023-05-10T12:24:11.492Z,26.60
2023-05-10T12:25:11.655Z,26.60
2023-05-10T12:26:11.854Z,26.53
2023-05-10T12:27:12.028Z,26.53
2023-05-10T12:28:12.208Z,26.56
2023-05-10T12:29:12.453Z,26.58
2023-05-10T12:30:12.615Z,26.62
2023-05-10T12:31:12.770Z,26.65
2023-05-10T12:32:12.972Z,26.63
2023-05-10T12:33:13.218Z,26.66
2023-05-10T12:34:13.260Z,26.70
2023-05-10T12:35:13.457Z,26.73
2023-05-10T12:36:13.606Z,26.70
2023-05-10T12:37:13.781Z,26.70
2023-05-10T12:38:13.954Z,26.73
2023-05-10T12:39:14.125Z,26.77
2023-05-10T12:40:14.404Z,26.81
2023-05-10T12:41:14.639Z,26.83
2023-05-10T12:42:14.664Z,26.88
2023-05-10T12:43:14.832Z,26.92
2023-05-10T12:44:15.011Z,26.93
2023-05-10T12:45:15.195Z,26.93
2023-05-10T12:46:15.470Z,26.97
2023-05-10T12:47:15.531Z,26.96
2023-05-10T12:48:15.752Z,26.97
2023-05-10T12:49:15.921Z,26.99
2023-05-10T12:50:16.407Z,26.97
2023-05-10T12:51:16.222Z,26.97
2023-05-10T12:52:17.348Z,27.00
2023-05-10T12:53:16.615Z,27.05
2023-05-10T12:54:16.758Z,27.02